sensor_id;sensor_type;location;lat;lon;timestamp;pressure;altitude;pressure_sealevel;temperature;humidity
4745;BME280;2386;42.138;24.746;2023-01-28T00:01:37;98848.13;;;5.98;83.24
4745;BME280;2386;42.138;24.746;2023-01-28T00:04:03;98847.38;;;5.90;84.70
4745;BME280;2386;42.138;24.746;2023-01-28T00:06:28;98852.00;;;6.02;84.32
4745;BME280;2386;42.138;24.746;2023-01-28T00:08:54;98849.47;;;6.07;83.64
4745;BME280;2386;42.138;24.746;2023-01-28T00:11:20;98847.06;;;5.99;83.98
4745;BME280;2386;42.138;24.746;2023-01-28T00:13:50;98851.19;;;6.01;83.27
4745;BME280;2386;42.138;24.746;2023-01-28T00:16:16;98842.91;;;6.03;85.02
4745;BME280;2386;42.138;24.746;2023-01-28T00:18:41;98859.09;;;6.21;83.80
4745;BME280;2386;42.138;24.746;2023-01-28T00:21:10;98858.31;;;6.14;83.25
4745;BME280;2386;42.138;24.746;2023-01-28T00:23:37;98854.44;;;6.10;82.67
4745;BME280;2386;42.138;24.746;2023-01-28T00:26:05;98860.84;;;6.09;83.00
4745;BME280;2386;42.138;24.746;2023-01-28T00:28:31;98861.34;;;5.99;82.34
4745;BME280;2386;42.138;24.746;2023-01-28T00:30:57;98865.16;;;5.91;83.21
4745;BME280;2386;42.138;24.746;2023-01-28T00:33:22;98875.13;;;5.84;84.02
4745;BME280;2386;42.138;24.746;2023-01-28T00:35:59;98873.75;;;6.00;84.98
4745;BME280;2386;42.138;24.746;2023-01-28T00:38:25;98881.19;;;6.05;83.09
4745;BME280;2386;42.138;24.746;2023-01-28T00:40:50;98877.13;;;5.96;83.38
4745;BME280;2386;42.138;24.746;2023-01-28T00:43:16;98890.25;;;6.10;83.50
4745;BME280;2386;42.138;24.746;2023-01-28T00:45:41;98895.97;;;5.96;84.76
4745;BME280;2386;42.138;24.746;2023-01-28T00:48:07;98899.13;;;5.92;84.46
4745;BME280;2386;42.138;24.746;2023-01-28T00:50:32;98898.53;;;6.09;84.80
4745;BME280;2386;42.138;24.746;2023-01-28T00:52:58;98910.31;;;6.14;83.91
4745;BME280;2386;42.138;24.746;2023-01-28T00:55:23;98894.03;;;6.03;84.89
4745;BME280;2386;42.138;24.746;2023-01-28T00:57:48;98903.50;;;6.12;84.12
4745;BME280;2386;42.138;24.746;2023-01-28T01:00:15;98908.06;;;6.11;83.46
4745;BME280;2386;42.138;24.746;2023-01-28T01:02:40;98899.69;;;5.94;84.00
4745;BME280;2386;42.138;24.746;2023-01-28T01:05:06;98902.00;;;6.16;84.59
4745;BME280;2386;42.138;24.746;2023-01-28T01:07:32;98912.34;;;5.94;83.98
4745;BME280;2386;42.138;24.746;2023-01-28T01:10:08;98909.75;;;6.06;84.31
4745;BME280;2386;42.138;24.746;2023-01-28T01:12:34;98896.03;;;5.89;84.61
4745;BME280;2386;42.138;24.746;2023-01-28T01:14:59;98908.59;;;5.95;83.48
4745;BME280;2386;42.138;24.746;2023-01-28T01:17:24;98910.19;;;6.03;84.01
4745;BME280;2386;42.138;24.746;2023-01-28T01:19:50;98920.75;;;6.04;84.68
4745;BME280;2386;42.138;24.746;2023-01-28T01:22:15;98910.75;;;5.80;84.00
4745;BME280;2386;42.138;24.746;2023-01-28T01:24:41;98913.16;;;5.94;84.52
4745;BME280;2386;42.138;24.746;2023-01-28T01:27:06;98908.53;;;6.02;83.78
4745;BME280;2386;42.138;24.746;2023-01-28T01:29:32;98912.88;;;6.03;83.95
4745;BME280;2386;42.138;24.746;2023-01-28T01:31:58;98923.69;;;5.96;84.55
4745;BME280;2386;42.138;24.746;2023-01-28T01:34:24;98915.25;;;5.92;83.30
4745;BME280;2386;42.138;24.746;2023-01-28T01:36:49;98919.31;;;6.02;83.38
4745;BME280;2386;42.138;24.746;2023-01-28T01:39:15;98922.34;;;6.12;82.32
4745;BME280;2386;42.138;24.746;2023-01-28T01:41:40;98920.19;;;6.20;83.78
4745;BME280;2386;42.138;24.746;2023-01-28T01:47:09;98929.53;;;6.18;83.56
4745;BME280;2386;42.138;24.746;2023-01-28T01:49:34;98931.84;;;6.14;82.68
4745;BME280;2386;42.138;24.746;2023-01-28T01:52:05;98939.97;;;6.08;82.00
4745;BME280;2386;42.138;24.746;2023-01-28T01:54:33;98939.81;;;6.03;82.23
4745;BME280;2386;42.138;24.746;2023-01-28T01:57:01;98939.09;;;5.82;82.67
4745;BME280;2386;42.138;24.746;2023-01-28T01:59:29;98950.41;;;5.98;82.91
4745;BME280;2386;42.138;24.746;2023-01-28T02:01:57;98943.63;;;5.88;82.24
4745;BME280;2386;42.138;24.746;2023-01-28T02:04:32;98948.59;;;5.91;82.51
4745;BME280;2386;42.138;24.746;2023-01-28T02:07:00;98948.75;;;5.97;83.21
4745;BME280;2386;42.138;24.746;2023-01-28T02:09:28;98952.16;;;5.79;82.78
4745;BME280;2386;42.138;24.746;2023-01-28T02:11:56;98960.81;;;5.87;82.24
4745;BME280;2386;42.138;24.746;2023-01-28T02:14:26;98944.16;;;5.66;82.30
4745;BME280;2386;42.138;24.746;2023-01-28T02:16:53;98955.66;;;5.86;82.65
4745;BME280;2386;42.138;24.746;2023-01-28T02:19:21;98956.75;;;5.72;83.59
4745;BME280;2386;42.138;24.746;2023-01-28T02:24:55;98966.41;;;5.92;83.17
4745;BME280;2386;42.138;24.746;2023-01-28T02:27:46;98966.53;;;5.98;83.20
4745;BME280;2386;42.138;24.746;2023-01-28T02:30:25;98969.72;;;5.88;82.54
4745;BME280;2386;42.138;24.746;2023-01-28T02:32:58;98972.00;;;5.91;82.46
4745;BME280;2386;42.138;24.746;2023-01-28T02:35:37;98968.59;;;6.02;82.78
4745;BME280;2386;42.138;24.746;2023-01-28T02:38:08;98961.84;;;5.93;81.37
4745;BME280;2386;42.138;24.746;2023-01-28T02:40:38;98971.84;;;6.11;82.16
4745;BME280;2386;42.138;24.746;2023-01-28T02:43:39;98973.19;;;5.95;81.43
4745;BME280;2386;42.138;24.746;2023-01-28T02:49:15;98971.19;;;5.90;81.85
4745;BME280;2386;42.138;24.746;2023-01-28T02:52:08;98987.38;;;6.09;82.46
4745;BME280;2386;42.138;24.746;2023-01-28T02:54:50;98980.59;;;6.00;80.74
4745;BME280;2386;42.138;24.746;2023-01-28T03:00:11;98978.53;;;6.02;80.03
4745;BME280;2386;42.138;24.746;2023-01-28T03:02:51;98979.03;;;5.85;79.71
4745;BME280;2386;42.138;24.746;2023-01-28T03:07:55;98983.63;;;5.78;80.13
4745;BME280;2386;42.138;24.746;2023-01-28T03:10:24;98984.66;;;5.77;80.74
4745;BME280;2386;42.138;24.746;2023-01-28T03:12:55;98998.50;;;5.87;80.85
4745;BME280;2386;42.138;24.746;2023-01-28T03:15:43;98995.19;;;5.85;80.19
4745;BME280;2386;42.138;24.746;2023-01-28T03:18:39;98996.47;;;5.76;79.87
4745;BME280;2386;42.138;24.746;2023-01-28T03:21:31;98992.31;;;5.80;79.52
4745;BME280;2386;42.138;24.746;2023-01-28T03:24:22;98998.69;;;5.86;79.75
4745;BME280;2386;42.138;24.746;2023-01-28T03:27:30;98995.19;;;5.85;79.20
4745;BME280;2386;42.138;24.746;2023-01-28T03:30:22;98992.84;;;5.96;79.17
4745;BME280;2386;42.138;24.746;2023-01-28T03:33:11;98993.34;;;5.79;79.65
4745;BME280;2386;42.138;24.746;2023-01-28T03:35:55;98988.16;;;5.91;79.74
4745;BME280;2386;42.138;24.746;2023-01-28T03:38:42;98999.13;;;5.89;79.58
4745;BME280;2386;42.138;24.746;2023-01-28T03:41:10;99003.47;;;5.90;79.01
4745;BME280;2386;42.138;24.746;2023-01-28T03:43:39;99005.13;;;5.91;78.74
4745;BME280;2386;42.138;24.746;2023-01-28T03:46:05;99012.78;;;5.88;79.08
4745;BME280;2386;42.138;24.746;2023-01-28T03:48:31;99002.81;;;5.88;79.00
4745;BME280;2386;42.138;24.746;2023-01-28T03:50:57;99007.66;;;5.73;80.10
4745;BME280;2386;42.138;24.746;2023-01-28T03:53:26;99011.94;;;5.87;79.01
4745;BME280;2386;42.138;24.746;2023-01-28T03:55:53;99020.22;;;5.92;79.04
4745;BME280;2386;42.138;24.746;2023-01-28T03:58:19;99020.06;;;5.81;77.80
4745;BME280;2386;42.138;24.746;2023-01-28T04:00:46;98996.69;;;5.75;78.82
4745;BME280;2386;42.138;24.746;2023-01-28T04:03:13;99014.44;;;5.82;79.14
4745;BME280;2386;42.138;24.746;2023-01-28T04:08:12;99018.78;;;5.83;80.07
4745;BME280;2386;42.138;24.746;2023-01-28T04:10:38;99016.78;;;5.72;79.16
4745;BME280;2386;42.138;24.746;2023-01-28T04:13:05;99024.66;;;5.67;79.64
4745;BME280;2386;42.138;24.746;2023-01-28T04:15:30;99009.28;;;5.81;80.33
4745;BME280;2386;42.138;24.746;2023-01-28T04:17:56;99014.63;;;5.87;79.60
4745;BME280;2386;42.138;24.746;2023-01-28T04:20:21;99017.44;;;6.06;79.41
4745;BME280;2386;42.138;24.746;2023-01-28T04:22:46;99011.47;;;5.97;79.21
4745;BME280;2386;42.138;24.746;2023-01-28T04:25:12;99019.56;;;5.97;78.83
4745;BME280;2386;42.138;24.746;2023-01-28T04:27:37;99028.66;;;5.96;77.87
4745;BME280;2386;42.138;24.746;2023-01-28T04:30:03;99026.88;;;5.83;79.04
4745;BME280;2386;42.138;24.746;2023-01-28T04:32:29;99021.72;;;5.75;78.41
4745;BME280;2386;42.138;24.746;2023-01-28T04:34:54;99023.81;;;5.73;79.75
4745;BME280;2386;42.138;24.746;2023-01-28T04:37:21;99017.22;;;5.69;79.29
4745;BME280;2386;42.138;24.746;2023-01-28T04:39:47;99027.78;;;5.64;79.24
4745;BME280;2386;42.138;24.746;2023-01-28T04:42:12;99030.09;;;5.54;79.64
4745;BME280;2386;42.138;24.746;2023-01-28T04:44:38;99026.34;;;5.61;80.63
4745;BME280;2386;42.138;24.746;2023-01-28T04:47:03;99042.50;;;5.55;80.24
4745;BME280;2386;42.138;24.746;2023-01-28T04:49:28;99028.63;;;5.58;80.32
4745;BME280;2386;42.138;24.746;2023-01-28T04:51:54;99037.16;;;5.42;80.96
4745;BME280;2386;42.138;24.746;2023-01-28T04:54:19;99036.31;;;5.48;80.08
4745;BME280;2386;42.138;24.746;2023-01-28T04:56:44;99046.66;;;5.51;80.08
4745;BME280;2386;42.138;24.746;2023-01-28T04:59:10;99039.25;;;5.40;80.76
4745;BME280;2386;42.138;24.746;2023-01-28T05:01:35;99053.69;;;5.52;80.88
4745;BME280;2386;42.138;24.746;2023-01-28T05:04:01;99044.63;;;5.40;81.18
4745;BME280;2386;42.138;24.746;2023-01-28T05:06:30;99058.44;;;5.56;80.71
4745;BME280;2386;42.138;24.746;2023-01-28T05:08:56;99068.97;;;5.58;79.88
4745;BME280;2386;42.138;24.746;2023-01-28T05:11:22;99060.34;;;5.43;79.82
4745;BME280;2386;42.138;24.746;2023-01-28T05:13:48;99070.22;;;5.62;79.68
4745;BME280;2386;42.138;24.746;2023-01-28T05:16:14;99064.66;;;5.50;80.97
4745;BME280;2386;42.138;24.746;2023-01-28T05:18:40;99078.13;;;5.44;80.66
4745;BME280;2386;42.138;24.746;2023-01-28T05:21:05;99083.91;;;5.47;82.09
4745;BME280;2386;42.138;24.746;2023-01-28T05:23:31;99080.81;;;5.50;81.82
4745;BME280;2386;42.138;24.746;2023-01-28T05:25:57;99085.56;;;5.42;81.18
4745;BME280;2386;42.138;24.746;2023-01-28T05:28:22;99083.94;;;5.34;80.26
4745;BME280;2386;42.138;24.746;2023-01-28T05:30:48;99090.13;;;5.41;80.08
4745;BME280;2386;42.138;24.746;2023-01-28T05:33:13;99080.22;;;5.28;80.03
4745;BME280;2386;42.138;24.746;2023-01-28T05:35:39;99101.31;;;5.32;81.25
4745;BME280;2386;42.138;24.746;2023-01-28T05:38:04;99082.31;;;5.26;81.54
4745;BME280;2386;42.138;24.746;2023-01-28T05:40:30;99097.19;;;5.36;81.33
4745;BME280;2386;42.138;24.746;2023-01-28T05:42:55;99091.59;;;5.31;81.12
4745;BME280;2386;42.138;24.746;2023-01-28T05:45:20;99098.84;;;5.37;82.44
4745;BME280;2386;42.138;24.746;2023-01-28T05:47:46;99089.94;;;5.36;82.26
4745;BME280;2386;42.138;24.746;2023-01-28T05:50:12;99107.09;;;5.42;81.47
4745;BME280;2386;42.138;24.746;2023-01-28T05:52:38;99105.03;;;5.37;81.28
4745;BME280;2386;42.138;24.746;2023-01-28T05:55:04;99089.53;;;5.33;82.05
4745;BME280;2386;42.138;24.746;2023-01-28T05:57:29;99109.97;;;5.47;82.10
4745;BME280;2386;42.138;24.746;2023-01-28T05:59:55;99113.09;;;5.44;81.91
4745;BME280;2386;42.138;24.746;2023-01-28T06:02:20;99121.13;;;5.57;81.75
4745;BME280;2386;42.138;24.746;2023-01-28T06:04:46;99109.53;;;5.63;81.88
4745;BME280;2386;42.138;24.746;2023-01-28T06:07:11;99133.28;;;5.92;81.61
4745;BME280;2386;42.138;24.746;2023-01-28T06:09:37;99142.50;;;6.10;81.28
4745;BME280;2386;42.138;24.746;2023-01-28T06:12:04;99123.97;;;5.82;80.27
4745;BME280;2386;42.138;24.746;2023-01-28T06:14:29;99154.34;;;5.96;79.96
4745;BME280;2386;42.138;24.746;2023-01-28T06:16:54;99139.09;;;5.76;80.69
4745;BME280;2386;42.138;24.746;2023-01-28T06:19:20;99143.84;;;5.74;80.39
4745;BME280;2386;42.138;24.746;2023-01-28T06:21:45;99151.69;;;5.82;79.36
4745;BME280;2386;42.138;24.746;2023-01-28T06:24:11;99146.78;;;5.66;80.09
4745;BME280;2386;42.138;24.746;2023-01-28T06:26:38;99168.28;;;5.66;80.23
4745;BME280;2386;42.138;24.746;2023-01-28T06:29:03;99162.66;;;5.81;80.60
4745;BME280;2386;42.138;24.746;2023-01-28T06:31:29;99164.94;;;5.84;81.35
4745;BME280;2386;42.138;24.746;2023-01-28T06:33:54;99169.50;;;5.90;80.36
4745;BME280;2386;42.138;24.746;2023-01-28T06:36:20;99169.31;;;5.78;80.44
4745;BME280;2386;42.138;24.746;2023-01-28T06:38:45;99175.50;;;5.85;80.86
4745;BME280;2386;42.138;24.746;2023-01-28T06:41:11;99166.81;;;5.83;81.04
4745;BME280;2386;42.138;24.746;2023-01-28T06:43:36;99175.31;;;5.80;81.11
4745;BME280;2386;42.138;24.746;2023-01-28T06:46:01;99186.06;;;5.87;80.36
4745;BME280;2386;42.138;24.746;2023-01-28T06:48:27;99187.25;;;5.98;80.69
4745;BME280;2386;42.138;24.746;2023-01-28T06:50:53;99194.31;;;5.99;81.30
4745;BME280;2386;42.138;24.746;2023-01-28T06:53:19;99193.53;;;5.91;81.61
4745;BME280;2386;42.138;24.746;2023-01-28T06:55:44;99187.06;;;5.99;81.77
4745;BME280;2386;42.138;24.746;2023-01-28T06:58:10;99199.47;;;6.00;82.31
4745;BME280;2386;42.138;24.746;2023-01-28T07:00:36;99201.38;;;5.93;81.84
4745;BME280;2386;42.138;24.746;2023-01-28T07:03:02;99204.25;;;5.98;82.10
4745;BME280;2386;42.138;24.746;2023-01-28T07:05:28;99204.03;;;6.00;81.22
4745;BME280;2386;42.138;24.746;2023-01-28T07:07:53;99202.56;;;6.04;81.60
4745;BME280;2386;42.138;24.746;2023-01-28T07:10:18;99212.06;;;6.13;81.13
4745;BME280;2386;42.138;24.746;2023-01-28T07:12:44;99207.34;;;6.02;81.66
4745;BME280;2386;42.138;24.746;2023-01-28T07:15:10;99217.28;;;6.01;81.56
4745;BME280;2386;42.138;24.746;2023-01-28T07:17:39;99222.66;;;6.08;81.66
4745;BME280;2386;42.138;24.746;2023-01-28T07:20:06;99210.44;;;5.99;80.98
4745;BME280;2386;42.138;24.746;2023-01-28T07:22:32;99216.84;;;6.11;80.54
4745;BME280;2386;42.138;24.746;2023-01-28T07:24:57;99214.56;;;6.08;82.43
4745;BME280;2386;42.138;24.746;2023-01-28T07:27:23;99228.66;;;6.10;80.81
4745;BME280;2386;42.138;24.746;2023-01-28T07:29:48;99236.06;;;6.28;79.91
4745;BME280;2386;42.138;24.746;2023-01-28T07:32:14;99232.72;;;6.32;80.28
4745;BME280;2386;42.138;24.746;2023-01-28T07:34:39;99237.31;;;6.25;79.66
4745;BME280;2386;42.138;24.746;2023-01-28T07:37:07;99219.50;;;6.17;80.21
4745;BME280;2386;42.138;24.746;2023-01-28T07:39:32;99238.31;;;6.31;79.16
4745;BME280;2386;42.138;24.746;2023-01-28T07:41:59;99247.03;;;6.26;79.46
4745;BME280;2386;42.138;24.746;2023-01-28T07:44:24;99241.47;;;6.21;78.73
4745;BME280;2386;42.138;24.746;2023-01-28T07:46:49;99243.31;;;6.20;79.51
4745;BME280;2386;42.138;24.746;2023-01-28T07:49:15;99232.56;;;6.14;79.43
4745;BME280;2386;42.138;24.746;2023-01-28T07:51:40;99251.19;;;6.22;78.91
4745;BME280;2386;42.138;24.746;2023-01-28T07:54:06;99255.53;;;6.30;80.06
4745;BME280;2386;42.138;24.746;2023-01-28T07:56:31;99252.66;;;6.18;78.46
4745;BME280;2386;42.138;24.746;2023-01-28T07:58:56;99246.88;;;6.08;78.65
4745;BME280;2386;42.138;24.746;2023-01-28T08:01:22;99261.34;;;6.20;78.40
4745;BME280;2386;42.138;24.746;2023-01-28T08:03:47;99258.06;;;6.11;78.43
4745;BME280;2386;42.138;24.746;2023-01-28T08:06:13;99268.81;;;6.18;78.64
4745;BME280;2386;42.138;24.746;2023-01-28T08:08:38;99251.00;;;6.17;78.78
4745;BME280;2386;42.138;24.746;2023-01-28T08:11:07;99264.22;;;6.25;78.80
4745;BME280;2386;42.138;24.746;2023-01-28T08:13:33;99265.03;;;6.39;78.34
4745;BME280;2386;42.138;24.746;2023-01-28T08:15:59;99270.00;;;6.42;77.59
4745;BME280;2386;42.138;24.746;2023-01-28T08:18:24;99274.34;;;6.36;77.91
4745;BME280;2386;42.138;24.746;2023-01-28T08:20:54;99277.25;;;6.41;78.59
4745;BME280;2386;42.138;24.746;2023-01-28T08:23:19;99281.97;;;6.52;78.58
4745;BME280;2386;42.138;24.746;2023-01-28T08:25:45;99279.66;;;6.63;77.20
4745;BME280;2386;42.138;24.746;2023-01-28T08:28:12;99274.16;;;6.31;76.09
4745;BME280;2386;42.138;24.746;2023-01-28T08:30:38;99299.41;;;6.43;76.26
4745;BME280;2386;42.138;24.746;2023-01-28T08:33:05;99284.06;;;6.50;76.09
4745;BME280;2386;42.138;24.746;2023-01-28T08:35:31;99305.19;;;6.53;75.25
4745;BME280;2386;42.138;24.746;2023-01-28T08:37:59;99297.13;;;6.47;74.79
4745;BME280;2386;42.138;24.746;2023-01-28T08:40:25;99303.09;;;6.55;74.44
4745;BME280;2386;42.138;24.746;2023-01-28T08:42:52;99304.75;;;6.56;74.41
4745;BME280;2386;42.138;24.746;2023-01-28T08:45:18;99303.94;;;6.56;75.26
4745;BME280;2386;42.138;24.746;2023-01-28T08:48:07;99308.91;;;6.59;75.61
4745;BME280;2386;42.138;24.746;2023-01-28T08:50:36;99307.38;;;6.70;75.01
4745;BME280;2386;42.138;24.746;2023-01-28T08:53:05;99293.97;;;6.56;74.07
4745;BME280;2386;42.138;24.746;2023-01-28T08:55:32;99311.16;;;6.62;74.20
4745;BME280;2386;42.138;24.746;2023-01-28T08:58:01;99312.22;;;6.54;73.70
4745;BME280;2386;42.138;24.746;2023-01-28T09:00:28;99312.63;;;6.58;74.74
4745;BME280;2386;42.138;24.746;2023-01-28T09:02:53;99317.94;;;6.71;73.50
4745;BME280;2386;42.138;24.746;2023-01-28T09:05:19;99309.28;;;6.63;73.19
4745;BME280;2386;42.138;24.746;2023-01-28T09:07:45;99317.81;;;6.59;73.23
4745;BME280;2386;42.138;24.746;2023-01-28T09:10:11;99321.13;;;6.62;72.89
4745;BME280;2386;42.138;24.746;2023-01-28T09:12:37;99311.81;;;6.57;73.02
4745;BME280;2386;42.138;24.746;2023-01-28T09:15:04;99301.81;;;6.65;73.21
4745;BME280;2386;42.138;24.746;2023-01-28T09:17:29;99312.94;;;6.81;73.23
4745;BME280;2386;42.138;24.746;2023-01-28T09:19:55;99326.75;;;6.98;73.93
4745;BME280;2386;42.138;24.746;2023-01-28T09:22:20;99307.69;;;6.93;72.83
4745;BME280;2386;42.138;24.746;2023-01-28T09:24:46;99317.38;;;7.07;71.82
4745;BME280;2386;42.138;24.746;2023-01-28T09:27:11;99310.56;;;6.98;71.70
4745;BME280;2386;42.138;24.746;2023-01-28T09:29:37;99317.34;;;7.14;71.33
4745;BME280;2386;42.138;24.746;2023-01-28T09:32:03;99305.75;;;7.07;72.13
4745;BME280;2386;42.138;24.746;2023-01-28T09:34:29;99308.63;;;7.12;70.12
4745;BME280;2386;42.138;24.746;2023-01-28T09:36:55;99306.75;;;7.12;69.60
4745;BME280;2386;42.138;24.746;2023-01-28T09:39:21;99314.41;;;7.15;69.68
4745;BME280;2386;42.138;24.746;2023-01-28T09:47:24;99322.41;;;7.35;69.03
4745;BME280;2386;42.138;24.746;2023-01-28T09:49:53;99317.66;;;7.31;67.82
4745;BME280;2386;42.138;24.746;2023-01-28T09:52:22;99316.34;;;7.40;68.61
4745;BME280;2386;42.138;24.746;2023-01-28T09:54:52;99322.81;;;7.64;69.03
4745;BME280;2386;42.138;24.746;2023-01-28T09:57:24;99317.97;;;7.72;67.30
4745;BME280;2386;42.138;24.746;2023-01-28T09:59:50;99321.16;;;7.87;68.35
4745;BME280;2386;42.138;24.746;2023-01-28T10:02:26;99314.59;;;8.02;66.97
4745;BME280;2386;42.138;24.746;2023-01-28T10:10:49;99316.41;;;8.26;66.43
4745;BME280;2386;42.138;24.746;2023-01-28T10:15:53;99310.47;;;8.17;65.80
4745;BME280;2386;42.138;24.746;2023-01-28T10:18:48;99316.63;;;8.24;65.59
4745;BME280;2386;42.138;24.746;2023-01-28T10:24:00;99313.13;;;8.24;65.06
4745;BME280;2386;42.138;24.746;2023-01-28T10:26:39;99318.22;;;8.14;66.04
4745;BME280;2386;42.138;24.746;2023-01-28T10:29:17;99308.16;;;8.21;66.63
4745;BME280;2386;42.138;24.746;2023-01-28T10:34:15;99326.78;;;8.29;64.81
4745;BME280;2386;42.138;24.746;2023-01-28T10:36:41;99309.53;;;8.12;64.97
4745;BME280;2386;42.138;24.746;2023-01-28T10:39:12;99314.94;;;8.12;65.39
4745;BME280;2386;42.138;24.746;2023-01-28T10:41:39;99326.94;;;8.16;65.44
4745;BME280;2386;42.138;24.746;2023-01-28T10:44:04;99314.00;;;8.18;66.70
4745;BME280;2386;42.138;24.746;2023-01-28T10:46:32;99321.81;;;8.26;67.09
4745;BME280;2386;42.138;24.746;2023-01-28T10:49:15;99316.31;;;8.39;66.05
4745;BME280;2386;42.138;24.746;2023-01-28T10:51:42;99312.78;;;8.39;65.42
4745;BME280;2386;42.138;24.746;2023-01-28T10:54:22;99311.59;;;8.35;64.70
4745;BME280;2386;42.138;24.746;2023-01-28T10:56:51;99318.66;;;8.11;66.26
4745;BME280;2386;42.138;24.746;2023-01-28T10:59:25;99313.09;;;8.06;67.91
4745;BME280;2386;42.138;24.746;2023-01-28T11:02:03;99303.19;;;8.18;68.02
4745;BME280;2386;42.138;24.746;2023-01-28T11:04:32;99318.72;;;8.47;67.97
4745;BME280;2386;42.138;24.746;2023-01-28T11:07:03;99314.66;;;8.38;67.20
4745;BME280;2386;42.138;24.746;2023-01-28T11:09:37;99320.81;;;8.45;66.84
4745;BME280;2386;42.138;24.746;2023-01-28T11:12:22;99312.88;;;8.50;66.56
4745;BME280;2386;42.138;24.746;2023-01-28T11:14:52;99320.31;;;8.30;66.47
4745;BME280;2386;42.138;24.746;2023-01-28T11:17:20;99318.13;;;8.45;66.48
4745;BME280;2386;42.138;24.746;2023-01-28T11:19:49;99304.28;;;8.17;65.77
4745;BME280;2386;42.138;24.746;2023-01-28T11:24:55;99315.81;;;8.06;66.78
4745;BME280;2386;42.138;24.746;2023-01-28T11:27:26;99306.66;;;8.07;65.37
4745;BME280;2386;42.138;24.746;2023-01-28T11:29:55;99309.81;;;8.22;68.38
4745;BME280;2386;42.138;24.746;2023-01-28T11:32:24;99287.13;;;8.48;67.68
4745;BME280;2386;42.138;24.746;2023-01-28T11:34:53;99308.34;;;8.81;67.34
4745;BME280;2386;42.138;24.746;2023-01-28T11:37:23;99304.69;;;9.05;66.30
4745;BME280;2386;42.138;24.746;2023-01-28T11:40:19;99301.53;;;9.08;64.04
4745;BME280;2386;42.138;24.746;2023-01-28T11:42:49;99316.16;;;9.19;62.86
4745;BME280;2386;42.138;24.746;2023-01-28T11:45:21;99313.53;;;9.12;65.09
4745;BME280;2386;42.138;24.746;2023-01-28T11:48:17;99306.66;;;8.98;62.86
4745;BME280;2386;42.138;24.746;2023-01-28T11:50:49;99319.47;;;8.54;64.57
4745;BME280;2386;42.138;24.746;2023-01-28T12:01:38;99322.66;;;7.83;69.14
4745;BME280;2386;42.138;24.746;2023-01-28T12:07:53;99328.28;;;7.82;70.80
4745;BME280;2386;42.138;24.746;2023-01-28T12:10:23;99321.25;;;7.49;71.27
4745;BME280;2386;42.138;24.746;2023-01-28T12:21:12;99337.63;;;7.79;72.93
4745;BME280;2386;42.138;24.746;2023-01-28T12:24:00;99333.09;;;7.73;73.19
4745;BME280;2386;42.138;24.746;2023-01-28T12:29:21;99335.28;;;7.89;74.56
4745;BME280;2386;42.138;24.746;2023-01-28T12:32:37;99346.63;;;7.98;72.11
4745;BME280;2386;42.138;24.746;2023-01-28T12:41:37;99348.88;;;7.45;75.13
4745;BME280;2386;42.138;24.746;2023-01-28T12:44:09;99350.91;;;7.18;76.14
4745;BME280;2386;42.138;24.746;2023-01-28T12:46:41;99353.91;;;7.03;77.00
4745;BME280;2386;42.138;24.746;2023-01-28T12:54:38;99368.25;;;7.35;79.32
4745;BME280;2386;42.138;24.746;2023-01-28T12:57:08;99353.81;;;7.23;80.17
4745;BME280;2386;42.138;24.746;2023-01-28T12:59:42;99366.69;;;7.21;78.81
4745;BME280;2386;42.138;24.746;2023-01-28T13:02:15;99367.72;;;7.20;80.07
4745;BME280;2386;42.138;24.746;2023-01-28T13:04:49;99375.00;;;7.13;80.74
4745;BME280;2386;42.138;24.746;2023-01-28T13:10:16;99372.16;;;7.01;82.11
4745;BME280;2386;42.138;24.746;2023-01-28T13:12:43;99362.69;;;6.79;82.54
4745;BME280;2386;42.138;24.746;2023-01-28T13:15:14;99380.47;;;7.00;82.91
4745;BME280;2386;42.138;24.746;2023-01-28T13:17:56;99375.03;;;7.06;82.68
4745;BME280;2386;42.138;24.746;2023-01-28T13:20:44;99379.41;;;7.07;82.28
4745;BME280;2386;42.138;24.746;2023-01-28T13:28:35;99379.06;;;6.84;83.01
4745;BME280;2386;42.138;24.746;2023-01-28T13:33:31;99393.78;;;6.81;82.24
4745;BME280;2386;42.138;24.746;2023-01-28T13:36:02;99399.34;;;6.93;81.13
4745;BME280;2386;42.138;24.746;2023-01-28T13:38:29;99398.38;;;6.74;81.63
4745;BME280;2386;42.138;24.746;2023-01-28T13:40:57;99410.41;;;6.72;81.78
4745;BME280;2386;42.138;24.746;2023-01-28T13:46:00;99405.72;;;6.47;83.78
4745;BME280;2386;42.138;24.746;2023-01-28T13:48:48;99412.94;;;6.53;85.37
4745;BME280;2386;42.138;24.746;2023-01-28T13:51:24;99415.00;;;6.65;85.57
4745;BME280;2386;42.138;24.746;2023-01-28T13:53:59;99420.34;;;6.78;85.33
4745;BME280;2386;42.138;24.746;2023-01-28T13:56:30;99416.66;;;6.66;85.60
4745;BME280;2386;42.138;24.746;2023-01-28T13:59:34;99426.78;;;6.70;85.74
4745;BME280;2386;42.138;24.746;2023-01-28T14:10:43;99430.94;;;6.73;88.71
4745;BME280;2386;42.138;24.746;2023-01-28T14:16:16;99423.22;;;6.89;88.52
4745;BME280;2386;42.138;24.746;2023-01-28T14:18:48;99429.97;;;7.18;88.27
4745;BME280;2386;42.138;24.746;2023-01-28T14:21:17;99433.78;;;6.91;86.91
4745;BME280;2386;42.138;24.746;2023-01-28T14:23:54;99427.97;;;6.94;86.97
4745;BME280;2386;42.138;24.746;2023-01-28T14:29:27;99437.72;;;6.95;88.20
4745;BME280;2386;42.138;24.746;2023-01-28T14:32:03;99424.00;;;7.03;88.58
4745;BME280;2386;42.138;24.746;2023-01-28T14:34:30;99436.03;;;7.07;87.01
4745;BME280;2386;42.138;24.746;2023-01-28T14:37:00;99444.34;;;6.99;88.01
4745;BME280;2386;42.138;24.746;2023-01-28T14:39:31;99449.47;;;7.14;87.63
4745;BME280;2386;42.138;24.746;2023-01-28T14:42:02;99438.50;;;7.09;90.12
4745;BME280;2386;42.138;24.746;2023-01-28T14:44:33;99453.28;;;6.93;86.85
4745;BME280;2386;42.138;24.746;2023-01-28T14:55:27;99467.16;;;7.03;87.11
4745;BME280;2386;42.138;24.746;2023-01-28T14:57:57;99464.69;;;6.95;86.79
4745;BME280;2386;42.138;24.746;2023-01-28T15:00:31;99458.41;;;7.14;86.55
4745;BME280;2386;42.138;24.746;2023-01-28T15:02:56;99470.69;;;7.04;86.26
4745;BME280;2386;42.138;24.746;2023-01-28T15:05:25;99462.78;;;7.02;88.12
4745;BME280;2386;42.138;24.746;2023-01-28T15:07:51;99472.09;;;7.19;86.03
4745;BME280;2386;42.138;24.746;2023-01-28T15:10:29;99471.91;;;7.14;84.08
4745;BME280;2386;42.138;24.746;2023-01-28T15:13:10;99477.91;;;7.10;83.94
4745;BME280;2386;42.138;24.746;2023-01-28T15:15:39;99478.75;;;7.04;82.95
4745;BME280;2386;42.138;24.746;2023-01-28T15:18:20;99491.16;;;7.24;83.60
4745;BME280;2386;42.138;24.746;2023-01-28T15:20:52;99492.19;;;7.30;84.83
4745;BME280;2386;42.138;24.746;2023-01-28T15:23:24;99476.63;;;7.25;85.11
4745;BME280;2386;42.138;24.746;2023-01-28T15:25:50;99484.25;;;7.42;84.25